Station Historical Data
Daily Summary for January 5, 2018 Units:  English    Metric   Both
« Previous Day
Next Day »
Daily Weekly Monthly Yearly Custom
  High: Low: Average:
Temperature: 6.1 °F -1.6 °F 1.8 °F
Dew Point: -1.3 °F -8.0 °F -4.7 °F
Humidity: 83% 62% 74%
Wind Speed: 15.0mph 2.0mph 6.3mph
Wind Gust: 21.0mph - -
Wind- - West
Pressure: 30.24 in 29.94 in -
Precipitation: 0.00 in    
Historical Graphs
 
 
Tabular Data for January 5, 2018
Time Temperature Dew Point Pressure Wind Wind Speed Wind Gust Humidity Rainfall Rate (Hourly)
00:09 3.5 °F -1.3 °F 29.94 in WNW 15.0 mph 16.0 mph 80% 0.00 in
00:14 3.5 °F -1.3 °F 29.95 in WNW 8.0 mph 18.0 mph 80% 0.00 in
00:19 3.4 °F -1.4 °F 29.95 in West 4.0 mph 17.0 mph 80% 0.00 in
00:24 3.3 °F -1.5 °F 29.95 in NNW 7.0 mph 14.0 mph 80% 0.00 in
00:29 3.3 °F -1.5 °F 29.95 in NW 9.0 mph 14.0 mph 80% 0.00 in
00:39 3.3 °F -1.5 °F 29.95 in NW 7.0 mph 16.0 mph 80% 0.00 in
00:44 3.3 °F -1.5 °F 29.95 in WNW 6.0 mph 13.0 mph 80% 0.00 in
00:54 3.3 °F -1.7 °F 29.95 in NW 7.0 mph 15.0 mph 79% 0.00 in
00:59 3.2 °F -1.8 °F 29.95 in West 8.0 mph 13.0 mph 79% 0.00 in
01:04 3.2 °F -1.8 °F 29.95 in WNW 3.0 mph 12.0 mph 79% 0.00 in
01:09 3.3 °F -1.7 °F 29.95 in NW 6.0 mph 16.0 mph 79% 0.00 in
01:14 3.4 °F -1.4 °F 29.95 in WNW 4.0 mph 13.0 mph 80% 0.00 in
01:19 3.3 °F -1.5 °F 29.95 in WNW 6.0 mph 16.0 mph 80% 0.00 in
01:24 3.3 °F -1.5 °F 29.96 in WNW 6.0 mph 16.0 mph 80% 0.00 in
01:34 3.2 °F -1.3 °F 29.96 in WNW 11.0 mph 12.0 mph 81% 0.00 in
01:39 3.1 °F -1.4 °F 29.96 in WNW 6.0 mph 13.0 mph 81% 0.00 in
01:44 2.9 °F -1.6 °F 29.96 in WNW 6.0 mph 13.0 mph 81% 0.00 in
01:49 2.9 °F -1.6 °F 29.96 in WNW 5.0 mph 15.0 mph 81% 0.00 in
01:54 2.9 °F -1.6 °F 29.97 in WNW 7.0 mph 15.0 mph 81% 0.00 in
01:59 2.7 °F -1.8 °F 29.97 in WNW 6.0 mph 14.0 mph 81% 0.00 in
02:04 2.4 °F -2.1 °F 29.97 in WNW 5.0 mph 12.0 mph 81% 0.00 in
02:09 2.2 °F -2.3 °F 29.97 in West 6.0 mph 12.0 mph 81% 0.00 in
02:14 2.0 °F -2.5 °F 29.97 in West 6.0 mph 9.0 mph 81% 0.00 in
02:19 1.8 °F -2.7 °F 29.97 in WSW 3.0 mph 7.0 mph 81% 0.00 in
02:24 1.8 °F -2.7 °F 29.98 in West 4.0 mph 8.0 mph 81% 0.00 in
02:29 1.8 °F -2.7 °F 29.98 in West 6.0 mph 12.0 mph 81% 0.00 in
02:34 2.0 °F -2.2 °F 29.98 in NW 9.0 mph 12.0 mph 82% 0.00 in
02:39 2.2 °F -2.0 °F 29.97 in West 5.0 mph 12.0 mph 82% 0.00 in
02:44 2.4 °F -1.8 °F 29.97 in WSW 7.0 mph 16.0 mph 82% 0.00 in
02:49 2.5 °F -1.7 °F 29.98 in WNW 8.0 mph 16.0 mph 82% 0.00 in
02:54 2.5 °F -1.7 °F 29.98 in WNW 6.0 mph 12.0 mph 82% 0.00 in
02:59 2.6 °F -1.6 °F 29.98 in West 8.0 mph 14.0 mph 82% 0.00 in
03:04 2.6 °F -1.6 °F 29.98 in WNW 7.0 mph 14.0 mph 82% 0.00 in
03:09 2.6 °F -1.6 °F 29.99 in WNW 6.0 mph 11.0 mph 82% 0.00 in
03:19 2.5 °F -1.7 °F 29.99 in NW 5.0 mph 15.0 mph 82% 0.00 in
03:29 2.3 °F -1.7 °F 29.99 in NW 8.0 mph 17.0 mph 83% 0.00 in
03:34 2.1 °F -2.1 °F 29.99 in NW 8.0 mph 16.0 mph 82% 0.00 in
03:39 1.9 °F -2.3 °F 29.99 in NW 8.0 mph 16.0 mph 82% 0.00 in
03:44 1.8 °F -2.4 °F 29.99 in NW 8.0 mph 16.0 mph 82% 0.00 in
03:54 1.6 °F -2.6 °F 29.99 in NW 8.0 mph 18.0 mph 82% 0.00 in
03:59 1.5 °F -2.7 °F 29.99 in WNW 8.0 mph 18.0 mph 82% 0.00 in
04:04 1.4 °F -2.8 °F 29.99 in WNW 8.0 mph 18.0 mph 82% 0.00 in
04:09 1.3 °F -2.9 °F 30.00 in NW 7.0 mph 18.0 mph 82% 0.00 in
04:19 1.2 °F -3.0 °F 29.99 in NW 15.0 mph 21.0 mph 82% 0.00 in
04:29 1.1 °F -3.1 °F 29.99 in NNE 7.0 mph 14.0 mph 82% 0.00 in
04:39 1.0 °F -3.2 °F 30.00 in WNW 6.0 mph 13.0 mph 82% 0.00 in
04:44 1.0 °F -3.2 °F 30.00 in West 9.0 mph 18.0 mph 82% 0.00 in
04:49 0.9 °F -3.3 °F 30.00 in NNW 10.0 mph 15.0 mph 82% 0.00 in
04:54 0.9 °F -3.3 °F 30.00 in WNW 7.0 mph 19.0 mph 82% 0.00 in
04:59 0.8 °F -3.4 °F 30.01 in WNW 7.0 mph 17.0 mph 82% 0.00 in
05:09 0.8 °F -3.4 °F 30.01 in WNW 5.0 mph 12.0 mph 82% 0.00 in
05:14 0.9 °F -3.3 °F 30.01 in NW 6.0 mph 17.0 mph 82% 0.00 in
05:19 0.9 °F -3.3 °F 30.01 in NW 4.0 mph 15.0 mph 82% 0.00 in
05:24 0.9 °F -3.3 °F 30.01 in NW 6.0 mph 16.0 mph 82% 0.00 in
05:34 0.9 °F -3.3 °F 30.01 in WNW 6.0 mph 12.0 mph 82% 0.00 in
05:44 0.9 °F -3.3 °F 30.02 in WNW 6.0 mph 15.0 mph 82% 0.00 in
05:49 0.9 °F -3.3 °F 30.02 in WNW 6.0 mph 15.0 mph 82% 0.00 in
05:54 1.0 °F -3.2 °F 30.02 in NW 4.0 mph 9.0 mph 82% 0.00 in
06:04 0.9 °F -3.3 °F 30.03 in NNW 9.0 mph 16.0 mph 82% 0.00 in
06:14 0.9 °F -3.3 °F 30.03 in NW 7.0 mph 14.0 mph 82% 0.00 in
06:19 0.9 °F -3.3 °F 30.03 in NW 8.0 mph 16.0 mph 82% 0.00 in
06:24 1.0 °F -3.2 °F 30.03 in NW 8.0 mph 16.0 mph 82% 0.00 in
06:29 1.0 °F -3.2 °F 30.03 in NW 7.0 mph 15.0 mph 82% 0.00 in
06:39 1.1 °F -3.1 °F 30.03 in NW 7.0 mph 17.0 mph 82% 0.00 in
06:44 1.1 °F -3.1 °F 30.04 in NW 8.0 mph 17.0 mph 82% 0.00 in
06:49 1.1 °F -3.1 °F 30.04 in WNW 6.0 mph 13.0 mph 82% 0.00 in
06:59 1.1 °F -3.4 °F 30.04 in NW 5.0 mph 15.0 mph 81% 0.00 in
07:04 1.2 °F -3.3 °F 30.05 in NW 6.0 mph 15.0 mph 81% 0.00 in
07:09 1.2 °F -3.3 °F 30.05 in NW 5.0 mph 15.0 mph 81% 0.00 in
07:19 0.4 °F -4.3 °F 30.05 in West 5.0 mph 12.0 mph 80% 0.00 in
07:24 0.0 °F -4.7 °F 30.06 in West 6.0 mph 12.0 mph 80% 0.00 in
07:34 -0.5 °F -5.2 °F 30.06 in West 4.0 mph 10.0 mph 80% 0.00 in
07:39 -0.8 °F -5.2 °F 30.06 in West 4.0 mph 9.0 mph 81% 0.00 in
07:44 -0.9 °F -5.3 °F 30.07 in West 5.0 mph 10.0 mph 81% 0.00 in
07:49 -1.0 °F -5.4 °F 30.07 in West 5.0 mph 10.0 mph 81% 0.00 in
07:54 -1.1 °F -5.5 °F 30.07 in West 6.0 mph 12.0 mph 81% 0.00 in
07:59 -1.2 °F -5.6 °F 30.07 in West 3.0 mph 11.0 mph 81% 0.00 in
08:04 -1.3 °F -5.7 °F 30.07 in West 6.0 mph 11.0 mph 81% 0.00 in
08:09 -1.3 °F -5.7 °F 30.08 in WNW 6.0 mph 11.0 mph 81% 0.00 in
08:14 -1.4 °F -5.8 °F 30.08 in WSW 8.0 mph 9.0 mph 81% 0.00 in
08:19 -1.4 °F -5.8 °F 30.08 in West 6.0 mph 10.0 mph 81% 0.00 in
08:24 -1.4 °F -5.8 °F 30.08 in West 5.0 mph 10.0 mph 81% 0.00 in
08:29 -1.4 °F -5.8 °F 30.08 in West 4.0 mph 10.0 mph 81% 0.00 in
08:34 -1.5 °F -5.9 °F 30.08 in West 4.0 mph 10.0 mph 81% 0.00 in
08:39 -1.5 °F -5.9 °F 30.08 in West 4.0 mph 9.0 mph 81% 0.00 in
08:44 -1.5 °F -5.9 °F 30.08 in West 4.0 mph 10.0 mph 81% 0.00 in
08:49 -1.6 °F -6.0 °F 30.08 in West 5.0 mph 10.0 mph 81% 0.00 in
08:54 -1.5 °F -5.9 °F 30.09 in West 5.0 mph 12.0 mph 81% 0.00 in
08:59 -1.6 °F -6.0 °F 30.09 in West 5.0 mph 12.0 mph 81% 0.00 in
09:04 -1.5 °F -5.9 °F 30.09 in West 5.0 mph 11.0 mph 81% 0.00 in
09:14 -1.5 °F -5.9 °F 30.09 in West 5.0 mph 9.0 mph 81% 0.00 in
09:19 -1.4 °F -5.8 °F 30.09 in WNW 8.0 mph 12.0 mph 81% 0.00 in
09:24 -1.1 °F -5.5 °F 30.10 in West 5.0 mph 12.0 mph 81% 0.00 in
09:29 -0.9 °F -5.3 °F 30.10 in West 5.0 mph 10.0 mph 81% 0.00 in
09:34 -0.6 °F -5.0 °F 30.10 in SW 3.0 mph 8.0 mph 81% 0.00 in
09:39 -0.3 °F -4.7 °F 30.10 in West 3.0 mph 11.0 mph 81% 0.00 in
09:44 -0.2 °F -4.6 °F 30.10 in West 5.0 mph 11.0 mph 81% 0.00 in
09:49 0.0 °F -4.4 °F 30.11 in West 4.0 mph 11.0 mph 81% 0.00 in
10:04 0.7 °F -4.0 °F 30.11 in West 4.0 mph 9.0 mph 80% 0.00 in
10:09 0.8 °F -3.9 °F 30.11 in West 5.0 mph 9.0 mph 80% 0.00 in
10:14 1.2 °F -3.5 °F 30.11 in West 3.0 mph 10.0 mph 80% 0.00 in
10:19 1.2 °F -3.8 °F 30.11 in West 5.0 mph 10.0 mph 79% 0.00 in
10:24 1.2 °F -4.1 °F 30.11 in West 5.0 mph 11.0 mph 78% 0.00 in
10:29 1.4 °F -3.9 °F 30.12 in WNW 4.0 mph 10.0 mph 78% 0.00 in
10:34 1.7 °F -3.8 °F 30.12 in West 5.0 mph 10.0 mph 77% 0.00 in
10:39 1.9 °F -3.7 °F 30.12 in West 4.0 mph 11.0 mph 77% 0.00 in
10:44 2.2 °F -3.4 °F 30.12 in West 7.0 mph 12.0 mph 77% 0.00 in
10:49 2.5 °F -3.3 °F 30.12 in West 3.0 mph 11.0 mph 76% 0.00 in
10:54 2.6 °F -3.2 °F 30.12 in West 5.0 mph 11.0 mph 76% 0.00 in
10:59 2.7 °F -3.1 °F 30.12 in WSW 5.0 mph 10.0 mph 76% 0.00 in
11:04 2.8 °F -3.1 °F 30.12 in West 6.0 mph 10.0 mph 76% 0.00 in
11:09 2.9 °F -3.0 °F 30.12 in West 6.0 mph 12.0 mph 76% 0.00 in
11:19 3.1 °F -3.0 °F 30.12 in WSW 6.0 mph 11.0 mph 75% 0.00 in
11:24 3.3 °F -2.8 °F 30.11 in West 5.0 mph 10.0 mph 75% 0.00 in
11:29 3.5 °F -2.7 °F 30.12 in West 5.0 mph 10.0 mph 75% 0.00 in
11:34 3.7 °F -2.5 °F 30.12 in West 7.0 mph 10.0 mph 75% 0.00 in
11:39 3.6 °F -2.6 °F 30.12 in West 5.0 mph 11.0 mph 75% 0.00 in
11:44 3.4 °F -2.7 °F 30.12 in West 5.0 mph 11.0 mph 75% 0.00 in
11:49 3.5 °F -2.7 °F 30.12 in West 6.0 mph 9.0 mph 75% 0.00 in
11:54 3.7 °F -2.5 °F 30.12 in West 5.0 mph 11.0 mph 75% 0.00 in
11:59 3.8 °F -2.4 °F 30.12 in West 9.0 mph 12.0 mph 75% 0.00 in
12:09 3.7 °F -2.5 °F 30.12 in West 7.0 mph 13.0 mph 75% 0.00 in
12:14 3.6 °F -2.8 °F 30.12 in West 6.0 mph 16.0 mph 74% 0.00 in
12:19 3.5 °F -2.7 °F 30.12 in West 7.0 mph 16.0 mph 75% 0.00 in
12:34 3.6 °F -2.6 °F 30.11 in WSW 5.0 mph 10.0 mph 75% 0.00 in
12:39 4.0 °F -2.2 °F 30.11 in WNW 6.0 mph 13.0 mph 75% 0.00 in
12:44 4.1 °F -2.4 °F 30.11 in West 7.0 mph 14.0 mph 74% 0.00 in
12:49 4.1 °F -2.6 °F 30.12 in West 8.0 mph 13.0 mph 73% 0.00 in
12:54 3.8 °F -2.9 °F 30.12 in West 7.0 mph 13.0 mph 73% 0.00 in
12:59 4.1 °F -2.6 °F 30.12 in West 7.0 mph 13.0 mph 73% 0.00 in
13:04 4.2 °F -2.8 °F 30.12 in West 6.0 mph 13.0 mph 72% 0.00 in
13:09 4.1 °F -3.2 °F 30.12 in WSW 7.0 mph 14.0 mph 71% 0.00 in
13:14 4.0 °F -3.6 °F 30.12 in WSW 7.0 mph 14.0 mph 70% 0.00 in
13:19 4.2 °F -3.7 °F 30.12 in WSW 7.0 mph 16.0 mph 69% 0.00 in
13:24 4.8 °F -3.5 °F 30.12 in West 8.0 mph 16.0 mph 68% 0.00 in
13:29 5.3 °F -3.3 °F 30.12 in West 7.0 mph 13.0 mph 67% 0.00 in
13:34 5.4 °F -3.2 °F 30.12 in West 7.0 mph 13.0 mph 67% 0.00 in
13:39 5.6 °F -3.3 °F 30.12 in West 7.0 mph 13.0 mph 66% 0.00 in
13:44 5.8 °F -2.8 °F 30.12 in West 12.0 mph 13.0 mph 67% 0.00 in
13:49 5.5 °F -3.4 °F 30.12 in West 6.0 mph 13.0 mph 66% 0.00 in
13:54 5.5 °F -3.1 °F 30.12 in West 7.0 mph 13.0 mph 67% 0.00 in
13:59 5.6 °F -3.0 °F 30.12 in West 7.0 mph 12.0 mph 67% 0.00 in
14:09 5.3 °F -3.6 °F 30.13 in West 7.0 mph 16.0 mph 66% 0.00 in
14:14 5.4 °F -3.5 °F 30.12 in West 6.0 mph 14.0 mph 66% 0.00 in
14:24 5.5 °F -3.4 °F 30.13 in SW 5.0 mph 15.0 mph 66% 0.00 in
14:29 5.6 °F -3.3 °F 30.13 in West 8.0 mph 17.0 mph 66% 0.00 in
14:34 5.9 °F -3.0 °F 30.13 in West 8.0 mph 17.0 mph 66% 0.00 in
14:39 5.9 °F -3.3 °F 30.13 in West 9.0 mph 16.0 mph 65% 0.00 in
14:44 5.9 °F -3.7 °F 30.13 in WSW 10.0 mph 15.0 mph 64% 0.00 in
14:49 5.8 °F -3.4 °F 30.13 in West 8.0 mph 15.0 mph 65% 0.00 in
14:59 6.1 °F -3.2 °F 30.14 in West 6.0 mph 13.0 mph 65% 0.00 in
15:04 5.8 °F -3.4 °F 30.14 in SW 3.0 mph 10.0 mph 65% 0.00 in
15:09 5.3 °F -4.2 °F 30.14 in WNW 8.0 mph 13.0 mph 64% 0.00 in
15:14 4.8 °F -4.7 °F 30.14 in WSW 4.0 mph 15.0 mph 64% 0.00 in
15:19 4.9 °F -4.6 °F 30.14 in West 7.0 mph 15.0 mph 64% 0.00 in
15:24 5.1 °F -4.4 °F 30.14 in WNW 6.0 mph 16.0 mph 64% 0.00 in
15:29 5.1 °F -4.4 °F 30.14 in SW 11.0 mph 15.0 mph 64% 0.00 in
15:39 4.7 °F -4.8 °F 30.15 in West 8.0 mph 17.0 mph 64% 0.00 in
15:44 4.6 °F -4.9 °F 30.15 in West 7.0 mph 17.0 mph 64% 0.00 in
15:54 4.4 °F -5.4 °F 30.16 in West 7.0 mph 13.0 mph 63% 0.00 in
16:04 4.3 °F -5.5 °F 30.16 in WNW 2.0 mph 14.0 mph 63% 0.00 in
16:09 4.1 °F -5.7 °F 30.16 in SW 12.0 mph 14.0 mph 63% 0.00 in
16:19 3.8 °F -6.3 °F 30.16 in West 8.0 mph 14.0 mph 62% 0.00 in
16:24 3.6 °F -6.2 °F 30.17 in West 7.0 mph 17.0 mph 63% 0.00 in
16:29 3.4 °F -6.7 °F 30.17 in SW 4.0 mph 12.0 mph 62% 0.00 in
16:34 3.3 °F -6.8 °F 30.17 in NW 3.0 mph 13.0 mph 62% 0.00 in
16:39 3.2 °F -6.6 °F 30.17 in West 6.0 mph 13.0 mph 63% 0.00 in
16:44 3.0 °F -6.8 °F 30.17 in West 5.0 mph 13.0 mph 63% 0.00 in
16:49 2.8 °F -7.0 °F 30.17 in West 7.0 mph 14.0 mph 63% 0.00 in
16:54 2.6 °F -7.1 °F 30.17 in WSW 8.0 mph 11.0 mph 63% 0.00 in
16:59 2.5 °F -7.2 °F 30.17 in West 6.0 mph 17.0 mph 63% 0.00 in
17:04 2.3 °F -7.1 °F 30.18 in WNW 4.0 mph 13.0 mph 64% 0.00 in
17:09 2.2 °F -7.2 °F 30.18 in WNW 8.0 mph 14.0 mph 64% 0.00 in
17:14 2.1 °F -7.3 °F 30.18 in West 3.0 mph 14.0 mph 64% 0.00 in
17:19 2.0 °F -7.4 °F 30.18 in West 3.0 mph 12.0 mph 64% 0.00 in
17:24 1.9 °F -7.5 °F 30.18 in WSW 6.0 mph 14.0 mph 64% 0.00 in
17:29 1.7 °F -7.7 °F 30.18 in West 6.0 mph 14.0 mph 64% 0.00 in
17:39 1.6 °F -7.8 °F 30.19 in West 7.0 mph 13.0 mph 64% 0.00 in
17:44 1.5 °F -7.9 °F 30.19 in West 6.0 mph 12.0 mph 64% 0.00 in
17:49 1.5 °F -7.9 °F 30.19 in WSW 6.0 mph 12.0 mph 64% 0.00 in
17:54 1.4 °F -7.6 °F 30.19 in WSW 5.0 mph 13.0 mph 65% 0.00 in
17:59 1.3 °F -7.7 °F 30.19 in West 6.0 mph 13.0 mph 65% 0.00 in
18:04 1.3 °F -7.7 °F 30.20 in West 6.0 mph 12.0 mph 65% 0.00 in
18:09 1.2 °F -7.8 °F 30.20 in West 6.0 mph 14.0 mph 65% 0.00 in
18:14 1.2 °F -7.8 °F 30.20 in WSW 7.0 mph 14.0 mph 65% 0.00 in
18:19 1.1 °F -7.9 °F 30.20 in West 11.0 mph 12.0 mph 65% 0.00 in
18:24 1.1 °F -7.6 °F 30.20 in West 8.0 mph 15.0 mph 66% 0.00 in
18:29 1.0 °F -7.7 °F 30.20 in West 4.0 mph 12.0 mph 66% 0.00 in
18:34 0.9 °F -7.8 °F 30.21 in West 2.0 mph 13.0 mph 66% 0.00 in
18:39 0.8 °F -7.9 °F 30.21 in West 7.0 mph 16.0 mph 66% 0.00 in
18:44 0.8 °F -7.9 °F 30.21 in West 6.0 mph 16.0 mph 66% 0.00 in
18:49 0.8 °F -7.6 °F 30.21 in West 7.0 mph 11.0 mph 67% 0.00 in
18:54 0.8 °F -7.6 °F 30.21 in SW 5.0 mph 13.0 mph 67% 0.00 in
18:59 0.7 °F -7.7 °F 30.21 in West 6.0 mph 13.0 mph 67% 0.00 in
19:04 0.7 °F -7.7 °F 30.22 in West 6.0 mph 16.0 mph 67% 0.00 in
19:14 0.6 °F -7.8 °F 30.22 in WSW 6.0 mph 13.0 mph 67% 0.00 in
19:19 0.5 °F -7.9 °F 30.22 in West 5.0 mph 15.0 mph 67% 0.00 in
19:24 0.5 °F -7.9 °F 30.22 in West 7.0 mph 17.0 mph 67% 0.00 in
19:29 0.6 °F -7.8 °F 30.22 in West 6.0 mph 12.0 mph 67% 0.00 in
19:34 0.4 °F -8.0 °F 30.22 in West 8.0 mph 13.0 mph 67% 0.00 in
19:44 0.5 °F -7.6 °F 30.23 in West 6.0 mph 12.0 mph 68% 0.00 in
19:49 0.4 °F -7.7 °F 30.23 in West 7.0 mph 13.0 mph 68% 0.00 in
19:54 0.3 °F -7.8 °F 30.23 in WSW 8.0 mph 13.0 mph 68% 0.00 in
19:59 0.3 °F -7.8 °F 30.23 in WSW 5.0 mph 13.0 mph 68% 0.00 in
20:09 0.1 °F -8.0 °F 30.23 in West 6.0 mph 12.0 mph 68% 0.00 in
20:14 0.1 °F -7.7 °F 30.23 in West 8.0 mph 14.0 mph 69% 0.00 in
20:19 0.2 °F -7.6 °F 30.23 in West 7.0 mph 14.0 mph 69% 0.00 in
20:24 0.3 °F -7.5 °F 30.23 in West 7.0 mph 14.0 mph 69% 0.00 in
20:29 0.3 °F -7.8 °F 30.23 in WSW 7.0 mph 14.0 mph 68% 0.00 in
20:34 0.2 °F -7.9 °F 30.23 in WSW 6.0 mph 14.0 mph 68% 0.00 in
20:39 0.1 °F -7.7 °F 30.23 in WSW 6.0 mph 10.0 mph 69% 0.00 in
20:44 0.0 °F -7.8 °F 30.23 in WSW 7.0 mph 12.0 mph 69% 0.00 in
20:49 -0.1 °F -7.9 °F 30.23 in West 6.0 mph 12.0 mph 69% 0.00 in
20:54 -0.1 °F -7.9 °F 30.23 in SW 4.0 mph 13.0 mph 69% 0.00 in
20:59 -0.1 °F -7.9 °F 30.23 in West 6.0 mph 12.0 mph 69% 0.00 in
21:04 -0.1 °F -7.9 °F 30.23 in WSW 5.0 mph 12.0 mph 69% 0.00 in
21:09 -0.1 °F -7.9 °F 30.23 in West 4.0 mph 13.0 mph 69% 0.00 in
21:14 0.1 °F -7.7 °F 30.23 in WSW 7.0 mph 15.0 mph 69% 0.00 in
21:19 0.2 °F -7.6 °F 30.23 in WSW 8.0 mph 15.0 mph 69% 0.00 in
21:24 0.1 °F -7.7 °F 30.23 in West 7.0 mph 14.0 mph 69% 0.00 in
21:29 0.2 °F -7.6 °F 30.23 in West 3.0 mph 13.0 mph 69% 0.00 in
21:34 0.2 °F -7.6 °F 30.23 in West 3.0 mph 12.0 mph 69% 0.00 in
21:39 0.2 °F -7.3 °F 30.23 in West 6.0 mph 14.0 mph 70% 0.00 in
21:49 0.1 °F -7.4 °F 30.23 in WSW 6.0 mph 15.0 mph 70% 0.00 in
21:54 0.2 °F -7.3 °F 30.23 in WSW 7.0 mph 15.0 mph 70% 0.00 in
21:59 0.3 °F -6.9 °F 30.23 in WSW 8.0 mph 15.0 mph 71% 0.00 in
22:04 0.3 °F -6.9 °F 30.23 in West 7.0 mph 13.0 mph 71% 0.00 in
22:09 0.2 °F -7.0 °F 30.23 in West 6.0 mph 13.0 mph 71% 0.00 in
22:10 0.2 °F -7.0 °F 30.23 in SW 7.0 mph 9.0 mph 71% 0.00 in
22:19 0.4 °F -6.8 °F 30.23 in WSW 8.0 mph 17.0 mph 71% 0.00 in
22:24 0.4 °F -6.8 °F 30.24 in West 7.0 mph 17.0 mph 71% 0.00 in
22:34 0.4 °F -6.8 °F 30.24 in West 8.0 mph 17.0 mph 71% 0.00 in
22:39 0.5 °F -6.7 °F 30.24 in West 8.0 mph 15.0 mph 71% 0.00 in
22:49 0.6 °F -6.6 °F 30.24 in WSW 5.0 mph 17.0 mph 71% 0.00 in
22:50 0.6 °F -6.6 °F 30.24 in West 7.0 mph 17.0 mph 71% 0.00 in
22:59 0.8 °F -6.4 °F 30.24 in West 7.0 mph 17.0 mph 71% 0.00 in
23:04 0.9 °F -6.3 °F 30.24 in West 5.0 mph 12.0 mph 71% 0.00 in
23:09 1.1 °F -6.1 °F 30.24 in West 6.0 mph 12.0 mph 71% 0.00 in
23:14 1.2 °F -5.7 °F 30.24 in West 7.0 mph 16.0 mph 72% 0.00 in
23:19 1.4 °F -5.5 °F 30.24 in WSW 8.0 mph 14.0 mph 72% 0.00 in
23:24 1.6 °F -5.3 °F 30.24 in West 10.0 mph 14.0 mph 72% 0.00 in
23:29 1.7 °F -5.2 °F 30.24 in West 8.0 mph 14.0 mph 72% 0.00 in
23:34 1.8 °F -5.2 °F 30.24 in West 8.0 mph 14.0 mph 72% 0.00 in
23:39 1.8 °F -5.2 °F 30.24 in West 8.0 mph 17.0 mph 72% 0.00 in
23:44 1.9 °F -5.1 °F 30.23 in WNW 5.0 mph 16.0 mph 72% 0.00 in
23:49 1.9 °F -5.1 °F 30.22 in SW 7.0 mph 18.0 mph 72% 0.00 in
23:54 2.0 °F -4.7 °F 30.22 in West 3.0 mph 17.0 mph 73% 0.00 in
Buffalo, New York, USA
Compliments of Weather Underground - 2.25 mb